Time;durP1;ratioP1;P1;durP2;ratioP2;P2;SDS_P1;SDS_P2;PMS_P1;PMS_P2;Temp;Humidity;BMP_temperature;BMP_pressure;BME280_temperature;BME280_humidity;BME280_pressure;Samples;Min_cycle;Max_cycle;Signal;HPM_P1;HPM_P2
2021/04/07 00:02:17;;;;;;;3.60;2.58;;;1.20;99.90;;;;;;5058534;28;20213;-83
2021/04/07 00:04:48;;;;;;;3.92;3.17;;;1.40;99.90;;;;;;5076399;28;20564;-81
2021/04/07 00:07:15;;;;;;;5.00;3.25;;;1.40;99.90;;;;;;5077068;28;20218;-83
2021/04/07 00:09:42;;;;;;;3.63;3.15;;;1.40;99.90;;;;;;5076680;28;20195;-82
2021/04/07 00:12:11;;;;;;;4.25;3.00;;;1.40;99.90;;;;;;5076482;28;20199;-81
2021/04/07 00:14:37;;;;;;;3.88;2.63;;;1.40;99.90;;;;;;5077045;28;20222;-81
2021/04/07 00:17:04;;;;;;;5.90;3.28;;;1.40;99.90;;;;;;5074157;28;20211;-81
2021/04/07 00:19:31;;;;;;;4.88;3.13;;;1.40;99.90;;;;;;5078487;28;20277;-82
2021/04/07 00:21:58;;;;;;;10.32;3.35;;;1.40;99.90;;;;;;5074319;28;20203;-83
2021/04/07 00:24:24;;;;;;;5.07;3.15;;;1.50;99.90;;;;;;5063486;28;20404;-82
2021/04/07 00:26:51;;;;;;;5.25;2.88;;;1.40;99.90;;;;;;5068459;28;20195;-80
2021/04/07 00:29:19;;;;;;;4.93;3.03;;;1.30;99.90;;;;;;5081571;28;20195;-81
2021/04/07 00:31:46;;;;;;;6.40;3.00;;;1.40;99.90;;;;;;5079555;28;20336;-81
2021/04/07 00:34:13;;;;;;;7.88;2.92;;;1.50;99.90;;;;;;5080194;28;20214;-82
2021/04/07 00:36:39;;;;;;;8.07;3.03;;;1.40;99.90;;;;;;5079987;28;20226;-80
2021/04/07 00:39:06;;;;;;;3.35;2.35;;;1.50;99.90;;;;;;5083333;28;20194;-79
2021/04/07 00:41:33;;;;;;;7.43;3.45;;;1.30;99.90;;;;;;5091174;28;20348;-80
2021/04/07 00:44:03;;;;;;;8.70;3.55;;;1.20;99.90;;;;;;5066850;28;20290;-82
2021/04/07 00:46:35;;;;;;;8.27;3.33;;;1.10;99.90;;;;;;5080587;28;20206;-81
2021/04/07 00:49:02;;;;;;;9.15;6.60;;;1.30;99.90;;;;;;5081375;28;20693;-81
2021/04/07 00:51:30;;;;;;;5.47;2.75;;;1.30;99.90;;;;;;5080742;28;20194;-82
2021/04/07 00:53:57;;;;;;;7.53;3.17;;;1.30;99.90;;;;;;5045138;28;20755;-79
2021/04/07 00:56:24;;;;;;;3.58;2.80;;;1.40;99.90;;;;;;5079705;28;20190;-82
2021/04/07 00:58:52;;;;;;;5.97;2.97;;;1.20;99.90;;;;;;5061375;28;20206;-81
2021/04/07 01:01:19;;;;;;;5.72;3.05;;;1.20;99.90;;;;;;5061872;28;20199;-81
2021/04/07 01:03:46;;;;;;;11.90;3.20;;;1.30;99.90;;;;;;5079988;28;20214;-82
2021/04/07 01:06:13;;;;;;;13.15;3.33;;;1.30;99.90;;;;;;5078910;28;20277;-82
2021/04/07 01:08:40;;;;;;;13.63;4.50;;;1.30;99.90;;;;;;5061286;28;20191;-83
2021/04/07 01:11:07;;;;;;;10.75;3.50;;;1.20;99.90;;;;;;5078624;28;20277;-81
2021/04/07 01:13:38;;;;;;;8.90;3.42;;;1.40;99.90;;;;;;5061355;28;20577;-85
2021/04/07 01:16:06;;;;;;;9.20;3.73;;;1.40;99.90;;;;;;5061292;28;20206;-81
2021/04/07 01:18:33;;;;;;;9.30;3.90;;;1.50;99.90;;;;;;5043743;28;20218;-82
2021/04/07 01:21:01;;;;;;;11.57;4.07;;;1.40;99.90;;;;;;5078230;28;20203;-81
2021/04/07 01:23:28;;;;;;;7.90;3.43;;;1.30;99.90;;;;;;5078260;28;20262;-82
2021/04/07 01:25:57;;;;;;;10.95;4.20;;;1.40;99.90;;;;;;5060110;28;20198;-81
2021/04/07 01:28:24;;;;;;;6.53;3.38;;;1.40;99.90;;;;;;5078783;28;20244;-81
2021/04/07 01:30:51;;;;;;;12.50;4.45;;;1.30;99.90;;;;;;5078232;28;20731;-81
2021/04/07 01:33:23;;;;;;;9.10;4.00;;;1.30;99.90;;;;;;5043427;28;20241;-82
2021/04/07 01:35:50;;;;;;;12.07;3.97;;;1.30;99.90;;;;;;5077932;28;20198;-81
2021/04/07 01:38:17;;;;;;;7.38;3.13;;;1.30;99.90;;;;;;5077681;28;20321;-82
2021/04/07 01:40:45;;;;;;;8.73;3.73;;;1.20;99.90;;;;;;5060331;28;20248;-81
2021/04/07 01:43:16;;;;;;;9.88;4.63;;;1.20;99.90;;;;;;5059599;28;20237;-81
2021/04/07 01:45:45;;;;;;;12.27;3.80;;;1.20;99.90;;;;;;5060779;28;20202;-81
2021/04/07 01:48:13;;;;;;;15.57;3.92;;;1.00;99.90;;;;;;5078134;28;20611;-82
2021/04/07 01:50:40;;;;;;;10.37;3.27;;;1.00;99.90;;;;;;5060879;28;20225;-80
2021/04/07 01:53:08;;;;;;;10.65;4.15;;;1.00;99.90;;;;;;5060470;28;20250;-82
2021/04/07 01:55:36;;;;;;;10.20;2.90;;;1.10;99.90;;;;;;5061017;28;20712;-81
2021/04/07 01:58:03;;;;;;;7.25;3.20;;;1.00;99.90;;;;;;5078379;28;20214;-81
2021/04/07 02:00:30;;;;;;;6.97;3.28;;;0.90;99.90;;;;;;5078645;28;20252;-78
2021/04/07 02:02:57;;;;;;;6.20;3.85;;;1.00;99.90;;;;;;5076964;28;20225;-84
2021/04/07 02:05:28;;;;;;;13.73;3.97;;;1.00;99.90;;;;;;5074053;28;20215;-81
2021/04/07 02:07:55;;;;;;;8.63;3.97;;;1.20;99.90;;;;;;5077215;28;20195;-79
2021/04/07 02:10:21;;;;;;;9.98;4.00;;;1.30;99.90;;;;;;5076701;28;20225;-81
2021/04/07 02:12:51;;;;;;;9.75;4.13;;;1.20;99.90;;;;;;5076558;28;20219;-81
2021/04/07 02:15:18;;;;;;;6.95;4.10;;;1.00;99.90;;;;;;5076714;28;20203;-80
2021/04/07 02:17:46;;;;;;;14.77;4.87;;;1.00;99.90;;;;;;5094115;28;20266;-82
2021/04/07 02:20:16;;;;;;;5.15;4.28;;;0.90;99.90;;;;;;5092255;28;20203;-81
2021/04/07 02:22:44;;;;;;;12.70;4.38;;;0.70;99.90;;;;;;5081176;28;20218;-82
2021/04/07 02:25:12;;;;;;;8.38;4.93;;;0.90;99.90;;;;;;5081634;28;20210;-82
2021/04/07 02:27:39;;;;;;;10.20;5.35;;;0.90;99.90;;;;;;5079562;28;20191;-81
2021/04/07 02:30:09;;;;;;;7.88;4.15;;;0.80;99.90;;;;;;5061796;28;20198;-81
2021/04/07 02:32:37;;;;;;;12.20;4.03;;;0.80;99.90;;;;;;5079625;28;20216;-80
2021/04/07 02:35:06;;;;;;;11.07;5.15;;;0.70;99.90;;;;;;5078920;28;20661;-80
2021/04/07 02:37:33;;;;;;;8.80;3.72;;;0.80;99.90;;;;;;5062409;28;20222;-81
2021/04/07 02:40:00;;;;;;;10.00;4.10;;;0.80;99.90;;;;;;5044696;28;20190;-80
2021/04/07 02:42:37;;;;;;;9.30;3.78;;;0.90;99.90;;;;;;5078905;28;20211;-80
2021/04/07 02:45:08;;;;;;;10.85;4.20;;;0.80;99.90;;;;;;4999240;28;20245;-80
2021/04/07 02:47:35;;;;;;;15.10;4.93;;;0.80;99.90;;;;;;4997848;28;20669;-80
2021/04/07 02:50:02;;;;;;;11.35;3.80;;;0.80;99.90;;;;;;4983756;28;20257;-80
2021/04/07 02:52:29;;;;;;;9.85;4.35;;;0.80;99.90;;;;;;4982724;28;20202;-81
2021/04/07 02:54:56;;;;;;;9.80;4.32;;;0.80;99.90;;;;;;4982713;28;20214;-80
2021/04/07 02:57:23;;;;;;;11.20;4.60;;;0.80;99.90;;;;;;4980382;28;20230;-80
2021/04/07 02:59:50;;;;;;;11.07;4.90;;;0.80;99.90;;;;;;4983276;28;20197;-81
2021/04/07 03:02:17;;;;;;;7.13;5.43;;;0.80;99.90;;;;;;5000598;28;20256;-80
2021/04/07 03:04:44;;;;;;;9.95;4.30;;;0.80;99.90;;;;;;4999245;28;20654;-80
2021/04/07 03:07:11;;;;;;;8.68;5.45;;;0.80;99.90;;;;;;5009971;28;20247;-81
2021/04/07 03:09:38;;;;;;;10.80;4.85;;;0.80;99.90;;;;;;5011139;28;20228;-80
2021/04/07 03:12:07;;;;;;;7.93;5.40;;;0.80;99.90;;;;;;5000487;28;20205;-81
2021/04/07 03:14:33;;;;;;;8.40;4.80;;;0.90;99.90;;;;;;4999417;28;20218;-80
2021/04/07 03:17:00;;;;;;;15.77;5.73;;;0.90;99.90;;;;;;4983023;28;20221;-80
2021/04/07 03:19:27;;;;;;;8.93;4.35;;;0.80;99.90;;;;;;5000143;28;20235;-81
2021/04/07 03:21:54;;;;;;;11.02;5.40;;;0.70;99.90;;;;;;4998895;28;20209;-81
2021/04/07 03:24:20;;;;;;;9.65;7.15;;;0.70;99.90;;;;;;5015199;28;20225;-81
2021/04/07 03:26:48;;;;;;;12.85;6.05;;;0.70;99.90;;;;;;4998833;28;20300;-80
2021/04/07 03:29:15;;;;;;;10.77;4.68;;;0.70;99.90;;;;;;4997604;28;20231;-81
2021/04/07 03:31:42;;;;;;;14.05;5.10;;;0.70;99.90;;;;;;4998196;28;20221;-80
2021/04/07 03:34:08;;;;;;;12.50;5.75;;;0.70;99.90;;;;;;5000947;28;20766;-81
2021/04/07 03:36:35;;;;;;;9.15;4.95;;;0.60;99.90;;;;;;5003959;28;20217;-81
2021/04/07 03:39:03;;;;;;;12.13;5.60;;;0.60;99.90;;;;;;5004669;28;20572;-81
2021/04/07 03:41:30;;;;;;;9.53;6.20;;;0.70;99.90;;;;;;5003826;28;20213;-81
2021/04/07 03:43:57;;;;;;;17.85;6.75;;;0.70;99.90;;;;;;4986348;28;20261;-81
2021/04/07 03:46:24;;;;;;;13.10;5.15;;;0.70;99.90;;;;;;5001426;28;20209;-81
2021/04/07 03:48:51;;;;;;;13.10;5.03;;;0.60;99.90;;;;;;5002315;28;20201;-81
2021/04/07 03:51:18;;;;;;;13.25;5.38;;;0.60;99.90;;;;;;5002310;28;20205;-81
2021/04/07 03:53:46;;;;;;;11.48;5.20;;;0.50;99.90;;;;;;5003753;28;20312;-81
2021/04/07 03:56:16;;;;;;;12.23;5.20;;;0.50;99.90;;;;;;5002729;28;20248;-81
2021/04/07 03:58:42;;;;;;;10.50;6.28;;;0.50;99.90;;;;;;4986882;28;20229;-81
2021/04/07 04:01:10;;;;;;;11.65;5.50;;;0.50;99.90;;;;;;5002967;28;20201;-81
2021/04/07 04:03:37;;;;;;;14.40;6.75;;;0.60;99.90;;;;;;5002718;28;20252;-81
2021/04/07 04:06:04;;;;;;;8.90;5.37;;;0.50;99.90;;;;;;5005066;28;20224;-81
2021/04/07 04:08:31;;;;;;;24.92;6.70;;;0.50;99.90;;;;;;5006227;28;20209;-81
2021/04/07 04:10:58;;;;;;;8.80;4.78;;;0.50;99.90;;;;;;5006053;28;20209;-81
2021/04/07 04:13:24;;;;;;;16.48;7.35;;;0.40;99.90;;;;;;5003583;28;20228;-80
2021/04/07 04:15:51;;;;;;;14.93;6.60;;;0.40;99.90;;;;;;5004923;28;20229;-82
2021/04/07 04:18:19;;;;;;;15.52;6.57;;;0.40;99.90;;;;;;5004467;28;20217;-81
2021/04/07 04:20:46;;;;;;;16.50;6.32;;;0.30;99.90;;;;;;5000675;28;20205;-82
2021/04/07 04:23:13;;;;;;;12.68;6.07;;;0.30;99.90;;;;;;5000867;28;20221;-81
2021/04/07 04:25:40;;;;;;;17.73;6.13;;;0.40;99.90;;;;;;4989209;28;20288;-82
2021/04/07 04:28:07;;;;;;;8.18;4.88;;;0.30;99.90;;;;;;5003738;28;20194;-80
2021/04/07 04:30:34;;;;;;;8.80;5.55;;;0.40;99.90;;;;;;5005975;28;20677;-82
2021/04/07 04:33:01;;;;;;;14.55;5.45;;;0.40;99.90;;;;;;5005591;28;20221;-81
2021/04/07 04:35:28;;;;;;;11.17;5.43;;;0.40;99.90;;;;;;5001661;28;20249;-81
2021/04/07 04:37:55;;;;;;;9.57;5.20;;;0.30;99.90;;;;;;5002310;28;20628;-81
2021/04/07 04:40:22;;;;;;;11.93;5.53;;;0.30;99.90;;;;;;5002430;28;20577;-81
2021/04/07 04:42:50;;;;;;;13.63;5.60;;;0.30;99.90;;;;;;5002569;28;20208;-82
2021/04/07 04:45:18;;;;;;;8.98;5.13;;;0.30;99.90;;;;;;5000489;28;20205;-80
2021/04/07 04:47:47;;;;;;;13.77;5.90;;;0.30;99.90;;;;;;5002775;28;20284;-81
2021/04/07 04:50:14;;;;;;;13.40;5.57;;;0.30;99.90;;;;;;4986611;28;20616;-81
2021/04/07 04:52:41;;;;;;;9.67;5.50;;;0.20;99.90;;;;;;5001923;28;20264;-81
2021/04/07 04:55:10;;;;;;;9.05;4.32;;;0.20;99.90;;;;;;5000820;28;20201;-81
2021/04/07 04:57:38;;;;;;;11.23;5.95;;;0.20;99.90;;;;;;5003471;28;20670;-81
2021/04/07 05:00:06;;;;;;;14.93;5.80;;;0.20;99.90;;;;;;5002886;28;20216;-81
2021/04/07 05:02:33;;;;;;;12.07;6.30;;;0.30;99.90;;;;;;5002442;28;20201;-82
2021/04/07 05:04:59;;;;;;;10.00;5.85;;;0.40;99.90;;;;;;5000904;28;20301;-82
2021/04/07 05:07:26;;;;;;;7.30;4.80;;;0.50;99.90;;;;;;5001133;28;20595;-81
2021/04/07 05:09:54;;;;;;;9.75;4.60;;;0.60;99.90;;;;;;5002942;28;20201;-81
2021/04/07 05:12:20;;;;;;;14.20;6.05;;;0.70;99.90;;;;;;5002618;28;20197;-81
2021/04/07 05:14:50;;;;;;;8.13;4.90;;;0.60;99.90;;;;;;4999638;28;20779;-81
2021/04/07 05:17:17;;;;;;;11.65;5.18;;;0.70;99.90;;;;;;5001921;28;20232;-81
2021/04/07 05:19:44;;;;;;;9.33;5.23;;;0.70;99.90;;;;;;5016017;28;20197;-81
2021/04/07 05:22:11;;;;;;;12.23;4.57;;;0.60;99.90;;;;;;5000160;28;20198;-82
2021/04/07 05:24:38;;;;;;;9.20;4.75;;;0.80;99.90;;;;;;5001456;28;20229;-79
2021/04/07 05:27:06;;;;;;;8.95;4.18;;;0.80;99.90;;;;;;5002712;28;20205;-81
2021/04/07 05:29:35;;;;;;;8.40;4.55;;;0.90;99.90;;;;;;5004514;28;20232;-81
2021/04/07 05:32:01;;;;;;;9.85;4.55;;;1.00;99.90;;;;;;5002971;28;20256;-81
2021/04/07 05:34:28;;;;;;;14.32;6.15;;;1.00;99.90;;;;;;5002452;28;20233;-81
2021/04/07 05:36:55;;;;;;;12.30;5.37;;;1.00;99.90;;;;;;5002999;28;20266;-82
2021/04/07 05:39:22;;;;;;;11.55;4.95;;;1.00;99.90;;;;;;5001279;28;20274;-81
2021/04/07 05:41:49;;;;;;;15.13;4.80;;;1.00;99.90;;;;;;5002045;28;20334;-81
2021/04/07 05:44:16;;;;;;;17.70;6.20;;;1.10;99.90;;;;;;5003018;28;20236;-82
2021/04/07 05:46:43;;;;;;;10.77;3.50;;;1.20;99.90;;;;;;5014145;28;20227;-81
2021/04/07 05:49:10;;;;;;;14.43;5.25;;;1.10;99.90;;;;;;5032787;28;20193;-82
2021/04/07 05:51:36;;;;;;;12.60;4.90;;;1.10;99.90;;;;;;5030757;28;20205;-82
2021/04/07 05:54:03;;;;;;;9.80;3.77;;;1.20;99.90;;;;;;5023896;28;20221;-82
2021/04/07 05:56:30;;;;;;;5.70;3.47;;;1.10;99.90;;;;;;5021662;28;20204;-82
2021/04/07 05:58:57;;;;;;;11.13;3.72;;;1.00;99.90;;;;;;5021075;28;20223;-82
2021/04/07 06:01:24;;;;;;;10.83;4.60;;;1.10;99.90;;;;;;5022078;28;20205;-81
2021/04/07 06:03:51;;;;;;;7.72;4.38;;;1.10;99.90;;;;;;5021747;28;20275;-81
2021/04/07 06:06:18;;;;;;;10.40;5.07;;;1.10;99.90;;;;;;5023426;28;20223;-81
2021/04/07 06:08:46;;;;;;;8.80;3.20;;;1.20;99.90;;;;;;5021101;28;20272;-81
2021/04/07 06:11:24;;;;;;;5.35;3.97;;;1.30;99.90;;;;;;5023159;28;20201;-82
2021/04/07 06:13:51;;;;;;;12.20;3.80;;;1.40;99.90;;;;;;5003650;28;20228;-82
2021/04/07 06:16:18;;;;;;;9.13;3.97;;;1.50;99.90;;;;;;5000230;28;20209;-82
2021/04/07 06:18:47;;;;;;;9.70;4.25;;;1.60;99.90;;;;;;5001176;28;20640;-81
2021/04/07 06:21:14;;;;;;;5.38;3.13;;;1.80;99.90;;;;;;5009820;28;20181;-81
2021/04/07 06:24:00;;;;;;;5.97;2.90;;;1.60;99.90;;;;;;5015876;28;20216;-82
2021/04/07 06:26:27;;;;;;;5.28;3.95;;;1.60;99.90;;;;;;5016286;28;20202;-83
2021/04/07 06:28:54;;;;;;;11.23;4.88;;;1.50;99.90;;;;;;5016164;28;20253;-82
2021/04/07 06:31:21;;;;;;;10.23;5.00;;;1.50;99.90;;;;;;5014790;28;20203;-82
2021/04/07 06:33:48;;;;;;;6.22;3.28;;;1.60;99.90;;;;;;5016725;28;20217;-81
2021/04/07 06:36:15;;;;;;;6.97;3.08;;;1.60;99.90;;;;;;5017085;28;20205;-80
2021/04/07 06:38:42;;;;;;;5.85;3.00;;;1.70;99.90;;;;;;5015647;28;20236;-82
2021/04/07 06:41:10;;;;;;;6.40;3.40;;;1.80;99.90;;;;;;5004294;28;20243;-82
2021/04/07 06:43:37;;;;;;;4.55;3.30;;;1.90;99.90;;;;;;5000544;28;20235;-81
2021/04/07 06:46:05;;;;;;;8.60;3.47;;;1.90;99.90;;;;;;5001125;28;20297;-80
2021/04/07 06:48:32;;;;;;;10.15;3.45;;;2.10;99.90;;;;;;5001289;28;20200;-82
2021/04/07 06:51:01;;;;;;;6.00;3.03;;;2.10;99.90;;;;;;5001687;28;20197;-81
2021/04/07 06:53:30;;;;;;;6.10;2.67;;;2.20;99.90;;;;;;5000765;28;20217;-81
2021/04/07 06:55:58;;;;;;;4.80;2.35;;;2.20;99.90;;;;;;5001489;28;20190;-81
2021/04/07 06:58:24;;;;;;;10.18;3.35;;;2.30;99.90;;;;;;5005936;28;20221;-81
2021/04/07 07:00:51;;;;;;;4.07;2.93;;;2.40;99.90;;;;;;4998669;28;20205;-78
2021/04/07 07:03:19;;;;;;;8.80;3.33;;;2.50;99.90;;;;;;5000328;28;20225;-81
2021/04/07 07:05:47;;;;;;;4.80;3.95;;;2.50;99.90;;;;;;5001902;28;20205;-81
2021/04/07 07:08:17;;;;;;;5.05;2.70;;;2.50;99.90;;;;;;5004399;28;20194;-81
2021/04/07 07:10:46;;;;;;;10.27;3.00;;;2.60;99.90;;;;;;5006691;28;20205;-81
2021/04/07 07:13:17;;;;;;;3.38;2.63;;;2.60;99.90;;;;;;5003965;28;20221;-81
2021/04/07 07:15:44;;;;;;;9.70;3.90;;;2.60;99.90;;;;;;4990409;28;20204;-82
2021/04/07 07:18:18;;;;;;;5.37;2.70;;;2.50;99.90;;;;;;5010257;28;20217;-82
2021/04/07 07:20:45;;;;;;;3.95;2.40;;;2.70;99.90;;;;;;5009932;28;20251;-82
2021/04/07 07:23:21;;;;;;;7.50;2.67;;;2.70;99.90;;;;;;5006809;28;20237;-81
2021/04/07 07:25:55;;;;;;;6.10;3.23;;;2.50;99.90;;;;;;5016111;28;20261;-82
2021/04/07 07:28:40;;;;;;;7.75;2.38;;;2.60;99.90;;;;;;5015046;28;20224;-81
2021/04/07 07:31:17;;;;;;;5.43;2.78;;;2.60;99.90;;;;;;4992478;28;20234;-82
2021/04/07 07:33:44;;;;;;;5.82;2.70;;;2.70;99.90;;;;;;5006069;28;20258;-81
2021/04/07 07:36:12;;;;;;;6.80;3.40;;;2.50;99.90;;;;;;5009871;28;20236;-81
2021/04/07 07:38:45;;;;;;;10.30;2.38;;;2.50;99.90;;;;;;5010393;28;20248;-80
2021/04/07 07:41:13;;;;;;;3.63;3.03;;;2.70;99.90;;;;;;5010337;28;20197;-81
2021/04/07 07:43:41;;;;;;;3.33;3.00;;;2.80;99.90;;;;;;5010932;28;20257;-81
2021/04/07 07:46:11;;;;;;;3.85;2.63;;;3.00;99.90;;;;;;5010797;28;20202;-83
2021/04/07 07:48:39;;;;;;;5.10;2.45;;;2.80;99.90;;;;;;5022347;28;20423;-82
2021/04/07 07:51:14;;;;;;;10.20;3.60;;;2.80;99.90;;;;;;5008745;28;20197;-82
2021/04/07 07:53:44;;;;;;;5.88;2.90;;;2.70;99.90;;;;;;5008479;28;20217;-82
2021/04/07 07:56:14;;;;;;;7.18;3.05;;;2.80;99.90;;;;;;5008572;28;20260;-81
2021/04/07 07:58:42;;;;;;;7.15;3.08;;;2.80;99.90;;;;;;5005172;28;20221;-82
2021/04/07 08:01:10;;;;;;;4.68;3.40;;;2.80;99.90;;;;;;5003961;28;20205;-81
2021/04/07 08:03:38;;;;;;;9.50;3.87;;;3.10;99.90;;;;;;5001073;28;20222;-82
2021/04/07 08:06:05;;;;;;;9.38;3.90;;;3.40;99.90;;;;;;4985369;28;20201;-81
2021/04/07 08:08:32;;;;;;;5.95;4.45;;;3.60;99.90;;;;;;5001467;28;20198;-82
2021/04/07 08:11:07;;;;;;;6.65;3.17;;;3.80;99.90;;;;;;5002072;28;20204;-82
2021/04/07 08:13:37;;;;;;;4.78;4.22;;;3.80;99.90;;;;;;5001211;28;20282;-82
2021/04/07 08:16:06;;;;;;;7.53;3.25;;;3.70;99.90;;;;;;5001829;28;20202;-82
2021/04/07 08:18:33;;;;;;;5.50;3.83;;;3.40;99.90;;;;;;5000812;28;20216;-82
2021/04/07 08:21:01;;;;;;;3.75;2.80;;;3.30;99.90;;;;;;5001948;28;20204;-82
2021/04/07 08:23:30;;;;;;;7.95;3.47;;;3.30;99.90;;;;;;5008348;28;20451;-82
2021/04/07 08:25:59;;;;;;;5.70;3.53;;;3.30;99.90;;;;;;5007248;28;20212;-83
2021/04/07 08:28:28;;;;;;;4.00;3.00;;;3.40;99.90;;;;;;5011265;28;20197;-83
2021/04/07 08:30:56;;;;;;;6.38;2.95;;;3.40;99.90;;;;;;5017276;28;20205;-83
2021/04/07 08:33:23;;;;;;;7.57;4.07;;;3.40;99.90;;;;;;5011273;28;20232;-82
2021/04/07 08:36:05;;;;;;;6.63;4.05;;;3.40;99.90;;;;;;5004923;28;20681;-82
2021/04/07 08:38:33;;;;;;;5.95;4.00;;;3.60;99.90;;;;;;5002861;28;20229;-81
2021/04/07 08:41:10;;;;;;;7.97;4.18;;;3.40;99.90;;;;;;5003639;28;20206;-83
2021/04/07 08:43:38;;;;;;;4.40;4.00;;;3.50;99.90;;;;;;5004249;28;20225;-84
2021/04/07 08:46:14;;;;;;;8.57;4.10;;;3.80;99.90;;;;;;4986153;28;20201;-84
2021/04/07 08:48:41;;;;;;;5.30;3.63;;;3.90;99.90;;;;;;5002228;28;20200;-84
2021/04/07 08:51:09;;;;;;;5.43;4.43;;;3.80;99.90;;;;;;5002727;28;20212;-83
2021/04/07 08:53:39;;;;;;;3.97;3.60;;;3.80;99.90;;;;;;5005942;28;20224;-82
2021/04/07 08:56:08;;;;;;;8.80;4.90;;;4.10;99.90;;;;;;4999889;28;20213;-84
2021/04/07 08:58:35;;;;;;;5.05;4.57;;;4.20;99.90;;;;;;5003059;28;20225;-85
2021/04/07 09:01:03;;;;;;;6.13;3.80;;;4.50;99.90;;;;;;5004033;28;20193;-83
2021/04/07 09:03:34;;;;;;;5.47;4.85;;;4.30;99.90;;;;;;5004025;28;20222;-84
2021/04/07 09:06:02;;;;;;;5.65;4.47;;;4.10;99.90;;;;;;5005622;28;20213;-84
2021/04/07 09:08:28;;;;;;;4.25;3.53;;;4.40;99.90;;;;;;5006073;28;20692;-83
2021/04/07 09:10:57;;;;;;;5.75;5.18;;;4.50;99.90;;;;;;4990827;28;20687;-84
2021/04/07 09:13:26;;;;;;;5.50;4.30;;;4.50;99.90;;;;;;5004327;28;20217;-83
2021/04/07 09:15:55;;;;;;;5.70;4.47;;;4.40;99.90;;;;;;5004317;28;20209;-83
2021/04/07 09:18:35;;;;;;;5.75;4.15;;;4.20;99.90;;;;;;5004320;28;20241;-83
2021/04/07 09:21:03;;;;;;;4.82;4.38;;;4.20;99.90;;;;;;4999889;28;20201;-82
2021/04/07 09:23:32;;;;;;;4.70;4.30;;;4.40;99.90;;;;;;5019441;28;20228;-83
2021/04/07 09:26:07;;;;;;;7.25;5.30;;;4.40;99.90;;;;;;5003830;28;20201;-82
2021/04/07 09:28:39;;;;;;;5.13;4.63;;;4.20;99.90;;;;;;5004332;28;20197;-83
2021/04/07 09:31:14;;;;;;;6.00;5.50;;;4.10;99.90;;;;;;4986681;28;20197;-83
2021/04/07 09:33:44;;;;;;;9.10;6.88;;;4.20;99.90;;;;;;5004681;28;20284;-84
2021/04/07 09:36:12;;;;;;;6.20;5.60;;;4.40;99.90;;;;;;5003764;28;20581;-84
2021/04/07 09:38:44;;;;;;;8.48;7.57;;;4.00;99.90;;;;;;5005380;28;20287;-84
2021/04/07 09:41:13;;;;;;;8.73;7.82;;;3.90;99.90;;;;;;5002081;28;20216;-84
2021/04/07 09:43:41;;;;;;;9.88;8.48;;;4.00;99.90;;;;;;5018679;28;20652;-83
2021/04/07 09:46:08;;;;;;;13.10;11.80;;;3.80;99.90;;;;;;5000677;28;20194;-84
2021/04/07 09:48:44;;;;;;;11.95;10.43;;;3.90;99.90;;;;;;4998134;28;20197;-84
2021/04/07 09:51:27;;;;;;;11.35;10.23;;;4.20;99.90;;;;;;5005174;28;20224;-84
2021/04/07 09:54:05;;;;;;;14.65;12.60;;;4.50;99.90;;;;;;5003595;28;20228;-85
2021/04/07 09:56:33;;;;;;;13.75;12.10;;;4.50;99.90;;;;;;5004605;28;20197;-84
2021/04/07 09:58:59;;;;;;;13.15;11.07;;;4.50;99.90;;;;;;5004046;28;20713;-84
2021/04/07 10:01:37;;;;;;;11.98;10.80;;;4.70;99.90;;;;;;5007002;28;20201;-83
2021/04/07 10:04:05;;;;;;;12.98;11.65;;;4.80;99.90;;;;;;5004399;28;20236;-83
2021/04/07 10:06:32;;;;;;;15.50;12.52;;;4.80;99.90;;;;;;5007268;28;20318;-83
2021/04/07 10:09:04;;;;;;;13.82;12.30;;;4.60;99.90;;;;;;5001958;28;20292;-84
2021/04/07 10:11:35;;;;;;;12.13;10.82;;;4.30;99.90;;;;;;5010173;28;20261;-84
2021/04/07 10:14:03;;;;;;;13.55;12.10;;;4.10;99.90;;;;;;5005314;28;20218;-85
2021/04/07 10:16:33;;;;;;;15.02;12.35;;;4.00;99.90;;;;;;4998654;28;20209;-83
2021/04/07 10:19:01;;;;;;;14.30;12.40;;;4.20;99.90;;;;;;4997606;28;20231;-83
2021/04/07 10:21:29;;;;;;;13.45;12.13;;;4.50;99.90;;;;;;5004056;28;20198;-85
2021/04/07 10:23:58;;;;;;;15.05;13.48;;;4.70;99.90;;;;;;5003549;28;20672;-82
2021/04/07 10:26:25;;;;;;;14.97;13.37;;;4.60;99.90;;;;;;4994736;28;20292;-75
2021/04/07 10:28:56;;;;;;;14.27;12.83;;;4.50;99.90;;;;;;4985654;28;20222;-75
2021/04/07 10:31:23;;;;;;;14.90;13.10;;;4.60;99.90;;;;;;4979783;28;20692;-76
2021/04/07 10:34:02;;;;;;;12.60;11.23;;;4.70;99.90;;;;;;5004894;28;20248;-76
2021/04/07 10:36:30;;;;;;;11.98;10.77;;;5.00;99.90;;;;;;5009229;28;20192;-76
2021/04/07 10:38:58;;;;;;;11.02;9.95;;;5.30;99.90;;;;;;5002641;28;20217;-76
2021/04/07 10:41:26;;;;;;;10.93;9.82;;;5.40;99.90;;;;;;4991616;28;20227;-76
2021/04/07 10:43:53;;;;;;;11.15;9.82;;;5.40;99.90;;;;;;4997086;28;20221;-77
2021/04/07 10:46:30;;;;;;;8.98;8.15;;;5.20;99.90;;;;;;4996102;28;20280;-76
2021/04/07 10:49:01;;;;;;;10.45;9.48;;;5.30;99.90;;;;;;4994388;28;20197;-77
2021/04/07 10:51:30;;;;;;;10.10;9.10;;;5.20;99.90;;;;;;4994007;28;20216;-74
2021/04/07 10:53:59;;;;;;;9.43;8.52;;;5.30;99.90;;;;;;4994961;28;20225;-75
2021/04/07 10:56:28;;;;;;;11.60;10.40;;;5.20;99.90;;;;;;4997501;28;20193;-77
2021/04/07 10:58:57;;;;;;;9.07;8.27;;;5.20;99.90;;;;;;4988439;28;20268;-76
2021/04/07 11:01:28;;;;;;;8.82;8.02;;;4.90;99.90;;;;;;4993143;28;20201;-77
2021/04/07 11:03:55;;;;;;;9.93;8.93;;;5.10;99.90;;;;;;4991827;28;20295;-74
2021/04/07 11:06:22;;;;;;;10.77;9.70;;;5.00;99.90;;;;;;4998421;28;20217;-82
2021/04/07 11:08:53;;;;;;;10.68;9.57;;;5.00;99.90;;;;;;4992636;28;20560;-83
2021/04/07 11:11:21;;;;;;;10.25;9.30;;;5.40;99.90;;;;;;5014515;28;20197;-82
2021/04/07 11:13:48;;;;;;;9.32;8.43;;;5.40;99.90;;;;;;5000618;28;20221;-82
2021/04/07 11:16:16;;;;;;;9.63;8.70;;;5.30;99.90;;;;;;5016838;28;20250;-80
2021/04/07 11:18:43;;;;;;;10.48;8.63;;;5.40;99.90;;;;;;5019824;28;20217;-82
2021/04/07 11:21:10;;;;;;;8.45;7.65;;;5.40;99.90;;;;;;5001326;28;20201;-80
2021/04/07 11:23:37;;;;;;;9.05;8.18;;;5.20;99.90;;;;;;4997377;28;20227;-81
2021/04/07 11:26:08;;;;;;;10.80;9.38;;;5.00;99.90;;;;;;4996887;28;20205;-82
2021/04/07 11:28:35;;;;;;;10.57;9.57;;;5.00;99.90;;;;;;4998529;28;20205;-80
2021/04/07 11:31:06;;;;;;;9.85;8.88;;;5.20;99.90;;;;;;5000513;28;20292;-80
2021/04/07 11:33:46;;;;;;;15.10;11.77;;;5.20;99.90;;;;;;4999227;28;20228;-82
2021/04/07 11:36:30;;;;;;;9.68;8.70;;;5.10;99.90;;;;;;4998870;28;20215;-81
2021/04/07 11:39:00;;;;;;;9.82;8.93;;;5.40;99.90;;;;;;4996063;28;20764;-78
2021/04/07 11:41:55;;;;;;;9.50;8.60;;;5.70;99.90;;;;;;4998625;28;20215;-79
2021/04/07 11:44:29;;;;;;;9.90;8.90;;;5.60;99.90;;;;;;4995552;28;20225;-80
2021/04/07 11:46:57;;;;;;;8.23;7.43;;;5.70;99.90;;;;;;4998072;28;20396;-81
2021/04/07 11:49:24;;;;;;;8.07;6.13;;;5.60;99.90;;;;;;4998366;28;20197;-81
2021/04/07 11:51:52;;;;;;;8.15;7.03;;;5.40;99.90;;;;;;4997164;28;20225;-81
2021/04/07 11:54:19;;;;;;;6.72;6.13;;;5.50;99.90;;;;;;4997292;28;20732;-81
2021/04/07 11:56:48;;;;;;;7.40;6.70;;;5.40;99.90;;;;;;4998774;28;20204;-81
2021/04/07 11:59:16;;;;;;;6.57;5.50;;;5.40;99.90;;;;;;4991453;28;20375;-80
2021/04/07 12:01:43;;;;;;;6.00;5.50;;;5.60;99.90;;;;;;4995918;28;20209;-81
2021/04/07 12:04:11;;;;;;;7.32;5.70;;;5.80;99.90;;;;;;4995133;28;20228;-81
2021/04/07 12:06:38;;;;;;;6.25;5.55;;;6.00;99.90;;;;;;4996723;28;20212;-82
2021/04/07 12:09:05;;;;;;;6.68;6.07;;;6.20;99.90;;;;;;4992350;28;20669;-79
2021/04/07 12:11:34;;;;;;;6.25;5.38;;;6.40;99.90;;;;;;4993821;28;20229;-80
2021/04/07 12:14:03;;;;;;;7.07;5.68;;;6.60;99.90;;;;;;4994870;28;20213;-80
2021/04/07 12:16:30;;;;;;;7.47;6.75;;;6.60;99.90;;;;;;4978893;28;20268;-80
2021/04/07 12:18:58;;;;;;;6.32;5.72;;;6.30;99.90;;;;;;4996306;28;20316;-80
2021/04/07 12:21:24;;;;;;;7.22;6.53;;;6.20;99.90;;;;;;4995674;28;20743;-81
2021/04/07 12:23:51;;;;;;;8.13;7.32;;;6.00;99.90;;;;;;4991777;28;20680;-81
2021/04/07 12:26:18;;;;;;;7.65;6.95;;;6.20;99.90;;;;;;4993838;28;20776;-79
2021/04/07 12:28:46;;;;;;;7.72;6.97;;;6.30;99.90;;;;;;4997819;28;20209;-80
2021/04/07 12:31:18;;;;;;;8.20;7.47;;;6.20;99.90;;;;;;4994227;28;20189;-81
2021/04/07 12:33:50;;;;;;;6.47;5.88;;;6.70;99.90;;;;;;5002248;28;20224;-82
2021/04/07 12:36:17;;;;;;;6.50;5.85;;;6.70;99.90;;;;;;5012967;28;20287;-81
2021/04/07 12:38:45;;;;;;;6.28;5.78;;;6.60;99.90;;;;;;5012941;28;20309;-82
2021/04/07 12:41:13;;;;;;;5.10;4.70;;;6.20;99.90;;;;;;5007101;28;20197;-80
2021/04/07 12:43:40;;;;;;;6.70;6.15;;;6.60;99.90;;;;;;5017581;28;20220;-81
2021/04/07 12:46:07;;;;;;;6.38;5.88;;;6.80;99.90;;;;;;5007466;28;20197;-82
2021/04/07 12:48:36;;;;;;;6.20;5.53;;;6.60;99.90;;;;;;4996214;28;20200;-79
2021/04/07 12:51:03;;;;;;;4.90;4.50;;;6.70;99.90;;;;;;4995427;28;20203;-81
2021/04/07 12:53:29;;;;;;;7.10;5.65;;;6.40;99.90;;;;;;4994009;28;20780;-79
2021/04/07 12:55:56;;;;;;;6.15;5.07;;;6.60;99.90;;;;;;4996186;28;20209;-82
2021/04/07 12:58:28;;;;;;;4.97;4.50;;;7.30;99.90;;;;;;4996857;28;20245;-81
2021/04/07 13:00:55;;;;;;;5.78;5.28;;;7.30;99.90;;;;;;4996801;28;20194;-81